Time;durP1;ratioP1;P1;durP2;ratioP2;P2;SDS_P1;SDS_P2;PMS_P1;PMS_P2;Temp;Humidity;BMP_temperature;BMP_pressure;BME280_temperature;BME280_humidity;BME280_pressure;Samples;Min_cycle;Max_cycle;Signal;HPM_P1;HPM_P2
2022/11/18 00:01:52;;;;;;;8.80;5.22;;;;;;;14.49;62.49;99704.09;5054072;28;20487;-76
2022/11/18 00:04:18;;;;;;;5.25;4.45;;;;;;;14.50;62.48;99697.66;5053412;28;20031;-79
2022/11/18 00:06:43;;;;;;;8.05;4.93;;;;;;;14.48;62.58;99703.25;5052695;28;20059;-79
2022/11/18 00:09:09;;;;;;;6.55;5.50;;;;;;;14.50;62.49;99694.94;5053362;28;20116;-79
2022/11/18 00:14:26;;;;;;;7.45;5.68;;;;;;;14.47;62.35;99689.88;5053503;28;20036;-78
2022/11/18 00:16:56;;;;;;;16.88;5.72;;;;;;;14.54;62.52;99696.31;5053076;28;20025;-80
2022/11/18 00:19:25;;;;;;;7.97;5.18;;;;;;;14.57;62.32;99698.66;5053405;28;20080;-78
2022/11/18 00:21:50;;;;;;;8.45;5.00;;;;;;;14.49;62.39;99693.28;5051891;28;20032;-78
2022/11/18 00:24:16;;;;;;;7.68;5.43;;;;;;;14.50;62.36;99706.63;5053511;28;20032;-78
2022/11/18 00:26:41;;;;;;;13.35;5.55;;;;;;;14.32;62.56;99686.16;5052917;28;20025;-78
2022/11/18 00:29:09;;;;;;;7.53;5.07;;;;;;;14.45;62.73;99708.16;5052843;28;20123;-78
2022/11/18 00:31:36;;;;;;;6.78;5.30;;;;;;;14.46;62.32;99720.69;5052195;28;20423;-77
2022/11/18 00:34:01;;;;;;;20.95;6.15;;;;;;;14.32;62.44;99699.69;5052758;28;20043;-79
2022/11/18 00:36:27;;;;;;;10.07;6.32;;;;;;;14.35;62.60;99716.47;5052629;28;20029;-79
2022/11/18 00:38:53;;;;;;;9.65;5.13;;;;;;;14.37;62.75;99713.59;5052504;28;20033;-77
2022/11/18 00:41:18;;;;;;;8.90;5.65;;;;;;;14.31;62.65;99716.97;5051526;28;20104;-75
2022/11/18 00:43:44;;;;;;;7.45;5.38;;;;;;;14.23;63.24;99708.81;5051603;28;20079;-77
2022/11/18 00:46:11;;;;;;;12.70;5.53;;;;;;;14.27;63.23;99726.41;5051455;28;20115;-77
2022/11/18 00:48:37;;;;;;;14.10;6.60;;;;;;;14.08;63.05;99692.44;5052818;28;20094;-78
2022/11/18 00:51:17;;;;;;;12.50;7.00;;;;;;;14.24;63.65;99729.47;5054993;28;20063;-76
2022/11/18 00:53:43;;;;;;;10.20;6.35;;;;;;;14.18;63.64;99733.69;5058553;28;20055;-76
2022/11/18 00:56:09;;;;;;;9.45;6.38;;;;;;;14.18;63.75;99731.84;5057437;28;20025;-76
2022/11/18 00:58:35;;;;;;;6.57;5.63;;;;;;;14.07;63.96;99737.56;5053386;28;20538;-77
2022/11/18 01:01:01;;;;;;;7.15;5.70;;;;;;;14.01;63.90;99719.31;5052641;28;20119;-77
2022/11/18 01:03:27;;;;;;;13.45;6.20;;;;;;;14.02;64.26;99731.84;5051561;28;20029;-77
2022/11/18 01:05:53;;;;;;;9.77;6.43;;;;;;;13.97;64.37;99720.69;5051110;28;20597;-76
2022/11/18 01:08:19;;;;;;;14.50;5.90;;;;;;;13.87;64.57;99703.78;5051282;28;20029;-76
2022/11/18 01:10:46;;;;;;;10.57;6.82;;;;;;;13.98;64.31;99719.66;5050815;28;20078;-76
2022/11/18 01:13:22;;;;;;;13.57;6.28;;;;;;;13.94;64.37;99721.00;5051098;28;20067;-77
2022/11/18 01:15:56;;;;;;;26.35;8.30;;;;;;;13.82;64.70;99716.94;5049775;28;20021;-77
2022/11/18 01:18:24;;;;;;;20.50;7.95;;;;;;;13.73;65.02;99725.22;5050902;28;20565;-76
2022/11/18 01:20:50;;;;;;;21.42;7.35;;;;;;;13.59;65.28;99721.31;5051022;28;20052;-76
2022/11/18 01:23:17;;;;;;;10.15;7.38;;;;;;;13.55;65.66;99725.34;5049873;28;20060;-76
2022/11/18 01:25:44;;;;;;;16.80;6.60;;;;;;;13.45;65.84;99714.72;5052975;28;20086;-76
2022/11/18 01:28:10;;;;;;;22.98;6.88;;;;;;;13.35;66.35;99705.91;5050819;28;20029;-76
2022/11/18 01:30:37;;;;;;;13.65;6.78;;;;;;;13.31;66.65;99714.47;5050830;28;20484;-76
2022/11/18 01:33:03;;;;;;;9.75;6.95;;;;;;;13.03;66.95;99676.91;5050848;28;20163;-76
2022/11/18 01:35:38;;;;;;;17.10;6.70;;;;;;;13.14;66.77;99704.66;5050629;28;20025;-77
2022/11/18 01:38:04;;;;;;;19.23;6.78;;;;;;;13.18;66.93;99716.81;5050573;28;20093;-76
2022/11/18 01:40:30;;;;;;;8.20;5.75;;;;;;;13.09;67.16;99707.81;5050234;28;20392;-76
2022/11/18 01:42:56;;;;;;;11.50;5.63;;;;;;;13.05;67.09;99696.50;5050309;28;20029;-76
2022/11/18 01:45:33;;;;;;;10.02;5.80;;;;;;;12.81;66.96;99666.69;5050392;28;20028;-76
2022/11/18 01:48:30;;;;;;;9.20;5.40;;;;;;;13.12;65.86;99709.38;5050728;28;20523;-76
2022/11/18 01:51:07;;;;;;;4.75;3.83;;;;;;;13.10;65.54;99696.03;5011190;28;20099;-75
2022/11/18 01:53:40;;;;;;;4.57;3.72;;;;;;;13.18;64.98;99698.75;5028057;28;20033;-76
2022/11/18 01:56:19;;;;;;;5.65;3.70;;;;;;;13.18;64.42;99690.66;5027729;28;20037;-76
2022/11/18 01:58:53;;;;;;;11.85;3.35;;;;;;;13.08;64.01;99661.13;5028232;28;20059;-76
2022/11/18 02:01:19;;;;;;;4.82;3.65;;;;;;;13.37;63.79;99692.22;5011186;28;20354;-78
2022/11/18 02:03:45;;;;;;;8.32;4.50;;;;;;;13.34;63.85;99685.28;5031715;28;20053;-76
2022/11/18 02:06:12;;;;;;;7.40;4.38;;;;;;;13.40;64.07;99690.03;5035088;28;20033;-76
2022/11/18 02:08:39;;;;;;;10.52;5.95;;;;;;;13.40;64.06;99683.78;5035539;28;20072;-76
2022/11/18 02:11:49;;;;;;;8.00;5.68;;;;;;;13.45;64.14;99692.25;5027937;28;20150;-77
2022/11/18 02:13:55;;;;;;;8.00;6.13;;;;;;;13.41;64.30;99689.03;5027841;28;20080;-76
2022/11/18 02:17:00;;;;;;;15.52;6.75;;;;;;;13.40;64.86;99694.59;5027784;28;20036;-77
2022/11/18 02:19:47;;;;;;;13.85;7.97;;;;;;;13.17;64.99;99655.72;4949651;29;20387;-76
2022/11/18 02:22:46;;;;;;;16.67;8.50;;;;;;;13.42;65.91;99681.78;4949723;29;20055;-75
2022/11/18 02:25:20;;;;;;;11.05;8.15;;;;;;;13.34;66.95;99684.44;4950016;29;20406;-76
2022/11/18 02:28:15;;;;;;;16.75;8.90;;;;;;;13.12;67.79;99668.88;4959293;28;20106;-76
2022/11/18 02:31:06;;;;;;;13.65;8.40;;;;;;;13.15;68.23;99693.66;4969045;28;20442;-75
2022/11/18 02:33:40;;;;;;;15.02;8.35;;;;;;;13.08;68.69;99690.81;4949373;29;20047;-76
2022/11/18 02:36:24;;;;;;;22.08;8.95;;;;;;;13.02;69.09;99696.81;4949710;28;20612;-76
2022/11/18 02:38:59;;;;;;;15.13;9.73;;;;;;;12.89;69.41;99691.03;4952798;29;20044;-76
2022/11/18 02:41:29;;;;;;;14.38;8.18;;;;;;;12.91;69.62;99693.56;4952867;29;20047;-76
2022/11/18 02:44:01;;;;;;;29.95;10.60;;;;;;;12.93;69.75;99692.41;4953029;29;20086;-75
2022/11/18 02:46:32;;;;;;;12.38;8.38;;;;;;;12.92;69.73;99690.72;4953768;29;20043;-78
2022/11/18 02:48:59;;;;;;;16.73;8.55;;;;;;;12.76;69.56;99665.50;4953645;29;20051;-78
2022/11/18 02:51:28;;;;;;;14.27;9.52;;;;;;;12.92;70.01;99695.25;4955453;29;20641;-76
2022/11/18 02:54:02;;;;;;;13.73;8.07;;;;;;;12.85;70.14;99695.06;4997556;28;20644;-78
2022/11/18 02:56:28;;;;;;;27.08;8.80;;;;;;;12.89;69.84;99699.13;5018668;28;20029;-80
2022/11/18 02:58:54;;;;;;;14.88;9.93;;;;;;;12.66;69.37;99662.91;5016533;28;20049;-78
2022/11/18 03:01:23;;;;;;;13.63;8.57;;;;;;;12.80;69.52;99692.00;5015057;28;20038;-77
2022/11/18 03:03:49;;;;;;;14.48;9.35;;;;;;;12.87;69.28;99703.00;4994736;28;20038;-75
2022/11/18 03:06:36;;;;;;;13.35;8.52;;;;;;;12.83;69.56;99707.88;5013805;28;20073;-77
2022/11/18 03:09:14;;;;;;;15.50;8.90;;;;;;;12.83;69.71;99707.88;5011561;28;20033;-77
2022/11/18 03:11:58;;;;;;;17.00;8.77;;;;;;;12.82;69.80;99710.72;5028322;28;20171;-76
2022/11/18 03:14:48;;;;;;;13.52;8.02;;;;;;;12.76;69.86;99701.41;5032940;28;20029;-76
2022/11/18 03:17:59;;;;;;;16.15;10.52;;;;;;;12.74;69.79;99708.84;5035723;28;20025;-77
2022/11/18 03:20:35;;;;;;;17.85;10.32;;;;;;;12.50;69.71;99681.75;5035251;28;20051;-76
2022/11/18 03:23:16;;;;;;;15.38;10.32;;;;;;;12.69;69.66;99711.16;5033477;28;20033;-75
2022/11/18 03:25:53;;;;;;;17.88;12.43;;;;;;;12.69;69.34;99708.44;5031969;28;20068;-76
2022/11/18 03:28:33;;;;;;;13.65;9.07;;;;;;;12.68;69.45;99712.19;5030944;28;20108;-77
2022/11/18 03:31:22;;;;;;;22.98;10.95;;;;;;;12.68;69.66;99708.63;5030764;28;20102;-77
2022/11/18 03:33:56;;;;;;;23.17;9.60;;;;;;;12.61;69.58;99702.19;5030645;28;20076;-76
2022/11/18 03:36:26;;;;;;;13.75;9.15;;;;;;;12.59;69.22;99699.66;5030727;28;20033;-77
2022/11/18 03:38:57;;;;;;;21.05;10.50;;;;;;;12.60;69.03;99712.13;5030192;28;20519;-77
2022/11/18 03:41:26;;;;;;;20.30;9.98;;;;;;;12.54;69.56;99719.00;5030204;28;20045;-75
2022/11/18 03:44:01;;;;;;;13.75;8.68;;;;;;;12.52;69.25;99709.38;5049381;28;20462;-76
2022/11/18 03:46:46;;;;;;;27.63;9.85;;;;;;;12.57;69.17;99721.38;5033364;28;20095;-76
2022/11/18 03:49:30;;;;;;;22.92;8.80;;;;;;;12.48;69.44;99708.84;5049411;28;20064;-77
2022/11/18 03:52:01;;;;;;;18.90;9.35;;;;;;;12.52;68.80;99712.06;5051773;28;20102;-76
2022/11/18 03:54:30;;;;;;;24.70;8.80;;;;;;;12.34;68.53;99684.31;5052786;28;20025;-77
2022/11/18 03:57:05;;;;;;;15.75;9.00;;;;;;;12.51;68.72;99716.63;5052375;28;20029;-76
2022/11/18 03:59:37;;;;;;;12.35;8.48;;;;;;;12.50;68.95;99727.59;5052921;28;20082;-76
2022/11/18 04:02:10;;;;;;;16.08;7.75;;;;;;;12.48;68.97;99727.72;5052497;28;20032;-77
2022/11/18 04:04:35;;;;;;;27.35;10.48;;;;;;;12.45;69.26;99719.09;5053182;28;20043;-78
2022/11/18 04:07:10;;;;;;;24.65;10.57;;;;;;;12.43;68.69;99726.53;5052921;28;20096;-77
2022/11/18 04:09:47;;;;;;;24.08;9.75;;;;;;;12.06;68.73;99688.16;5053031;28;20111;-78
2022/11/18 04:12:20;;;;;;;21.45;9.57;;;;;;;12.15;69.49;99719.56;5052783;28;20105;-78
2022/11/18 04:14:54;;;;;;;17.60;9.15;;;;;;;12.03;69.67;99710.91;5052739;28;20033;-78
2022/11/18 04:17:21;;;;;;;24.60;8.07;;;;;;;11.95;70.28;99703.59;5070007;28;20028;-77
2022/11/18 04:19:47;;;;;;;14.68;8.15;;;;;;;11.85;70.47;99700.16;5071645;28;20079;-77
2022/11/18 04:22:13;;;;;;;17.90;8.30;;;;;;;11.93;70.47;99723.59;5070410;28;20044;-76
2022/11/18 04:24:38;;;;;;;17.65;7.15;;;;;;;11.88;70.46;99707.91;5069648;28;20024;-77
2022/11/18 04:27:04;;;;;;;15.23;6.97;;;;;;;11.93;70.71;99716.38;5069907;28;20032;-76
2022/11/18 04:29:31;;;;;;;13.40;6.60;;;;;;;12.00;70.15;99720.13;5072455;28;20082;-76
2022/11/18 04:31:58;;;;;;;15.65;7.00;;;;;;;11.95;70.57;99711.69;5076143;28;20043;-77
2022/11/18 04:34:23;;;;;;;16.15;8.00;;;;;;;11.79;70.08;99690.00;5072635;28;20127;-77
2022/11/18 04:36:49;;;;;;;17.30;9.27;;;;;;;12.05;69.50;99729.63;5070931;28;20539;-76
2022/11/18 04:39:14;;;;;;;26.80;9.05;;;;;;;11.97;69.42;99717.75;5069887;28;20051;-78
2022/11/18 04:41:55;;;;;;;44.13;10.98;;;;;;;11.91;69.86;99714.84;5070099;28;20047;-77
2022/11/18 04:44:32;;;;;;;28.83;8.70;;;;;;;11.97;69.88;99728.53;5069075;28;20039;-76
2022/11/18 04:46:59;;;;;;;21.20;7.68;;;;;;;11.82;69.38;99707.69;5069209;28;20033;-76
2022/11/18 04:49:25;;;;;;;38.65;7.60;;;;;;;11.81;69.73;99714.91;5053614;28;20103;-76
2022/11/18 04:51:52;;;;;;;16.65;6.68;;;;;;;12.06;70.09;99758.25;5052364;28;20029;-77
2022/11/18 04:54:18;;;;;;;38.30;7.22;;;;;;;11.96;69.80;99728.69;5052099;28;20045;-76
2022/11/18 04:56:45;;;;;;;27.95;7.10;;;;;;;12.00;69.72;99749.78;5050731;28;20054;-77
2022/11/18 04:59:11;;;;;;;54.08;10.75;;;;;;;11.95;69.67;99748.56;5051266;28;20094;-78
2022/11/18 05:01:37;;;;;;;41.92;8.77;;;;;;;11.74;70.25;99718.41;5053190;28;20037;-77
2022/11/18 05:04:03;;;;;;;39.78;11.52;;;;;;;11.91;70.27;99750.72;5055554;28;20020;-76
2022/11/18 05:06:29;;;;;;;62.22;10.60;;;;;;;11.97;70.40;99771.66;5054280;28;20055;-77
2022/11/18 05:08:57;;;;;;;23.15;8.75;;;;;;;11.97;70.12;99771.66;5050828;28;20029;-76
2022/11/18 05:14:06;;;;;;;39.40;10.07;;;;;;;11.84;70.71;99767.63;5051892;28;20081;-76
2022/11/18 05:16:31;;;;;;;49.75;10.00;;;;;;;11.79;70.84;99770.81;5051010;28;20025;-75
2022/11/18 05:18:57;;;;;;;27.38;9.82;;;;;;;11.75;70.78;99772.09;5052201;28;20024;-75
2022/11/18 05:21:22;;;;;;;53.92;12.48;;;;;;;11.72;71.02;99774.25;5051626;28;20024;-76
2022/11/18 05:23:48;;;;;;;56.90;14.75;;;;;;;11.69;71.42;99769.13;5050336;28;20035;-75
2022/11/18 05:26:14;;;;;;;45.78;15.65;;;;;;;11.68;71.65;99770.97;5047983;28;20037;-76
2022/11/18 05:28:39;;;;;;;71.22;16.52;;;;;;;11.61;72.06;99767.22;5050258;28;20028;-77
2022/11/18 05:31:09;;;;;;;53.80;15.80;;;;;;;11.67;72.69;99772.00;5050090;28;20037;-76
2022/11/18 05:33:35;;;;;;;89.78;20.10;;;;;;;11.71;72.31;99773.41;5050264;28;20071;-75
2022/11/18 05:36:05;;;;;;;55.97;17.15;;;;;;;11.71;73.02;99776.09;5050088;28;20481;-76
2022/11/18 05:38:32;;;;;;;65.65;16.52;;;;;;;11.68;73.06;99776.38;5051518;28;20108;-77
2022/11/18 05:40:57;;;;;;;74.47;15.23;;;;;;;11.53;73.32;99745.56;5057787;28;20035;-76
2022/11/18 05:43:23;;;;;;;49.33;13.50;;;;;;;11.72;73.78;99774.25;5056717;28;20479;-76
2022/11/18 05:45:50;;;;;;;44.90;13.25;;;;;;;11.76;73.77;99763.03;5052737;28;20033;-76
2022/11/18 05:48:15;;;;;;;39.28;12.93;;;;;;;11.85;73.28;99775.59;5053024;28;20053;-76
2022/11/18 05:50:40;;;;;;;72.43;14.43;;;;;;;11.94;73.91;99765.72;5050099;28;20406;-76
2022/11/18 05:53:07;;;;;;;61.50;13.65;;;;;;;11.95;73.68;99764.72;5050175;28;20036;-76
2022/11/18 05:55:50;;;;;;;28.33;9.45;;;;;;;12.11;73.30;99775.63;5049991;28;20402;-76
2022/11/18 05:58:16;;;;;;;66.60;12.82;;;;;;;12.02;73.43;99743.41;5050141;28;20135;-76
2022/11/18 06:00:44;;;;;;;58.97;12.82;;;;;;;12.26;73.35;99779.47;5050217;28;20484;-76
2022/11/18 06:03:18;;;;;;;46.47;12.68;;;;;;;12.32;73.22;99772.63;5049973;28;20028;-76
2022/11/18 06:05:43;;;;;;;44.83;12.70;;;;;;;12.42;72.84;99778.75;5050073;28;20028;-75
2022/11/18 06:08:11;;;;;;;50.33;14.45;;;;;;;12.47;72.97;99773.75;5050291;28;20790;-75
2022/11/18 06:10:37;;;;;;;44.65;11.23;;;;;;;12.59;72.53;99780.56;5048492;28;20369;-74
2022/11/18 06:13:09;;;;;;;62.50;14.32;;;;;;;12.61;72.72;99767.75;5053660;28;20083;-75
2022/11/18 06:15:40;;;;;;;59.50;13.82;;;;;;;12.75;72.58;99783.34;5053938;28;20122;-75
2022/11/18 06:18:12;;;;;;;66.88;12.65;;;;;;;12.86;72.40;99782.25;5054234;28;20033;-76
2022/11/18 06:20:40;;;;;;;47.80;12.18;;;;;;;12.91;72.37;99788.00;5051777;28;20040;-75
2022/11/18 06:23:05;;;;;;;56.97;15.38;;;;;;;13.06;72.84;99789.94;5053922;28;20044;-75
2022/11/18 06:25:31;;;;;;;42.97;14.25;;;;;;;13.12;72.53;99776.88;5051464;28;20041;-76
2022/11/18 06:28:01;;;;;;;35.60;14.15;;;;;;;12.91;72.63;99721.38;5053960;28;20071;-76
2022/11/18 06:30:26;;;;;;;59.33;20.30;;;;;;;13.40;72.79;99798.06;5053560;28;20104;-76
2022/11/18 06:32:52;;;;;;;74.43;24.67;;;;;;;13.49;72.88;99785.44;5053624;28;20029;-77
2022/11/18 06:35:17;;;;;;;87.30;21.63;;;;;;;13.57;72.55;99782.78;5053574;28;20116;-76
2022/11/18 06:37:43;;;;;;;70.65;20.10;;;;;;;13.72;72.42;99783.81;5053904;28;20032;-76
2022/11/18 06:40:09;;;;;;;87.22;23.77;;;;;;;13.89;72.38;99784.69;5053503;28;20219;-75
2022/11/18 06:45:18;;;;;;;43.83;14.43;;;;;;;14.14;73.10;99776.44;5053747;28;20127;-77
2022/11/18 06:47:44;;;;;;;37.42;11.93;;;;;;;14.21;73.47;99771.22;5053631;28;20149;-76
2022/11/18 06:50:09;;;;;;;38.47;12.18;;;;;;;14.20;74.02;99750.59;5055809;28;20112;-77
2022/11/18 06:52:34;;;;;;;42.95;10.00;;;;;;;14.51;74.78;99775.13;5057084;28;20049;-75
2022/11/18 06:55:00;;;;;;;42.50;11.27;;;;;;;14.65;75.42;99774.41;5058502;28;20037;-76
2022/11/18 06:57:26;;;;;;;29.75;8.60;;;;;;;14.77;76.02;99766.81;5053242;28;20029;-75
2022/11/18 06:59:51;;;;;;;27.90;9.80;;;;;;;14.87;76.90;99757.44;5053252;28;20021;-76
2022/11/18 07:02:17;;;;;;;32.25;9.57;;;;;;;15.13;77.18;99777.03;5053205;28;20039;-77
2022/11/18 07:04:44;;;;;;;22.92;8.00;;;;;;;15.19;78.77;99762.78;5053061;28;20059;-76
2022/11/18 07:07:10;;;;;;;35.47;10.25;;;;;;;15.17;79.71;99737.72;5053074;28;20047;-76
2022/11/18 07:09:36;;;;;;;26.27;7.22;;;;;;;15.39;79.98;99762.34;5053123;28;20417;-77
2022/11/18 07:12:02;;;;;;;22.75;8.50;;;;;;;15.51;80.13;99758.25;5050850;28;20160;-76
2022/11/18 07:14:28;;;;;;;27.48;8.77;;;;;;;15.59;80.04;99747.38;5051765;28;20021;-75
2022/11/18 07:16:53;;;;;;;12.70;7.95;;;;;;;15.67;79.92;99750.88;5055698;28;20062;-76
2022/11/18 07:19:19;;;;;;;18.40;7.53;;;;;;;15.64;79.90;99755.81;5052962;28;20443;-76
2022/11/18 07:21:44;;;;;;;18.08;7.18;;;;;;;15.66;80.11;99754.59;5052461;28;20041;-75
2022/11/18 07:24:14;;;;;;;17.80;8.05;;;;;;;15.73;80.36;99755.56;5053666;28;20028;-76
2022/11/18 07:26:41;;;;;;;13.88;7.78;;;;;;;15.68;80.64;99749.00;5067098;28;20095;-76
2022/11/18 07:29:06;;;;;;;25.00;10.60;;;;;;;15.75;80.59;99758.09;5052344;28;20022;-78
2022/11/18 07:31:34;;;;;;;24.17;11.32;;;;;;;15.72;80.18;99755.75;5050355;28;20037;-76
2022/11/18 07:33:59;;;;;;;23.73;12.00;;;;;;;15.69;80.28;99747.97;5052322;28;20025;-77
2022/11/18 07:36:27;;;;;;;17.25;11.60;;;;;;;15.73;79.93;99750.16;5052191;28;20035;-78
2022/11/18 07:38:53;;;;;;;23.95;12.68;;;;;;;15.63;79.40;99745.97;5052137;28;20036;-76
2022/11/18 07:41:21;;;;;;;47.38;11.93;;;;;;;15.48;79.44;99729.63;5052307;28;20342;-77
2022/11/18 07:43:49;;;;;;;44.05;14.43;;;;;;;15.62;79.47;99752.44;5052739;28;20198;-77
2022/11/18 07:46:17;;;;;;;50.60;14.85;;;;;;;15.60;79.68;99738.19;5067011;28;20049;-76
2022/11/18 07:48:44;;;;;;;22.95;11.52;;;;;;;15.73;79.83;99743.88;5052168;28;20451;-75
2022/11/18 07:51:10;;;;;;;41.30;12.43;;;;;;;15.81;79.95;99751.94;5052136;28;20106;-76
2022/11/18 07:53:36;;;;;;;26.83;11.68;;;;;;;15.70;79.97;99709.00;5051884;28;20029;-77
2022/11/18 07:56:03;;;;;;;75.80;13.10;;;;;;;16.00;79.87;99732.50;5052034;28;20032;-77
2022/11/18 07:58:28;;;;;;;44.05;12.05;;;;;;;16.17;78.87;99734.09;5052281;28;20036;-75
2022/11/18 08:00:54;;;;;;;124.63;17.45;;;;;;;16.31;78.79;99735.97;5054718;28;20025;-76
2022/11/18 08:03:27;;;;;;;28.48;10.02;;;;;;;16.46;78.25;99727.00;5055965;28;20029;-76
2022/11/18 08:05:57;;;;;;;18.58;9.80;;;;;;;16.60;77.53;99708.09;5054170;28;20032;-76
2022/11/18 08:08:23;;;;;;;21.05;11.05;;;;;;;16.88;76.31;99727.28;5051985;28;20032;-77
2022/11/18 08:10:48;;;;;;;13.40;6.88;;;;;;;17.00;75.31;99733.94;5051818;28;20028;-76
2022/11/18 08:13:13;;;;;;;11.60;7.25;;;;;;;17.09;73.98;99716.53;5051877;28;20066;-78
2022/11/18 08:15:42;;;;;;;44.42;10.30;;;;;;;17.49;73.54;99738.78;5051778;28;20134;-77
2022/11/18 08:18:08;;;;;;;26.25;8.25;;;;;;;17.70;71.82;99725.25;5051742;28;20025;-76
2022/11/18 08:20:34;;;;;;;34.13;9.32;;;;;;;17.90;70.46;99738.00;5051528;28;20072;-75
2022/11/18 08:23:00;;;;;;;25.38;8.13;;;;;;;18.07;69.99;99733.13;5051648;28;20036;-75
2022/11/18 08:25:25;;;;;;;20.25;9.50;;;;;;;18.28;68.74;99724.13;5052160;28;20100;-78
2022/11/18 08:27:51;;;;;;;37.80;9.35;;;;;;;18.55;66.74;99744.28;5051767;28;20431;-76
2022/11/18 08:30:17;;;;;;;34.63;10.05;;;;;;;18.64;67.07;99745.81;5051449;28;20036;-76
2022/11/18 08:32:42;;;;;;;23.35;8.73;;;;;;;18.56;67.74;99754.16;5051609;28;20450;-77
2022/11/18 08:35:08;;;;;;;28.10;10.20;;;;;;;18.46;67.85;99735.41;5051520;28;20021;-75
2022/11/18 08:37:34;;;;;;;21.63;7.85;;;;;;;18.47;68.04;99750.66;5051886;28;20033;-76
2022/11/18 08:39:59;;;;;;;18.80;7.25;;;;;;;18.32;67.06;99753.47;5051653;28;20032;-76
2022/11/18 08:42:24;;;;;;;22.83;6.85;;;;;;;18.40;66.43;99750.66;5051327;28;20084;-76
2022/11/18 08:44:50;;;;;;;18.05;6.43;;;;;;;18.29;65.06;99753.88;5051530;28;20025;-76
2022/11/18 08:47:16;;;;;;;17.92;6.45;;;;;;;18.38;65.12;99752.69;5051283;28;20025;-76
2022/11/18 08:49:41;;;;;;;40.55;7.40;;;;;;;18.43;63.87;99743.97;5051021;28;20095;-76
2022/11/18 08:52:07;;;;;;;10.63;6.55;;;;;;;18.15;63.05;99724.88;5051449;28;20036;-76
2022/11/18 08:54:33;;;;;;;15.65;7.05;;;;;;;18.33;63.52;99755.19;5050875;28;20025;-76
2022/11/18 08:56:59;;;;;;;18.45;7.70;;;;;;;18.26;64.01;99756.97;5050949;28;20075;-77
2022/11/18 08:59:25;;;;;;;45.72;11.32;;;;;;;18.22;65.02;99753.00;5051286;28;20446;-77
2022/11/18 09:01:50;;;;;;;18.27;7.00;;;;;;;18.37;64.75;99751.03;5050847;28;20043;-76
2022/11/18 09:04:16;;;;;;;14.65;7.63;;;;;;;18.45;64.86;99741.88;5050856;28;20345;-75
2022/11/18 09:06:41;;;;;;;18.52;8.95;;;;;;;18.52;64.65;99741.97;5051663;28;20191;-77
2022/11/18 09:09:07;;;;;;;25.83;8.48;;;;;;;18.69;64.62;99743.34;5050734;28;20493;-76
2022/11/18 09:11:33;;;;;;;21.70;7.80;;;;;;;18.62;64.98;99732.41;5054078;28;20115;-79
2022/11/18 09:13:59;;;;;;;19.92;8.93;;;;;;;18.62;65.11;99723.41;5054906;28;20059;-78
2022/11/18 09:16:26;;;;;;;24.20;8.60;;;;;;;18.72;65.37;99734.75;5051067;28;20032;-77
2022/11/18 09:18:53;;;;;;;34.13;9.43;;;;;;;18.85;65.15;99730.25;5050535;28;20090;-79
2022/11/18 09:21:18;;;;;;;38.95;9.65;;;;;;;18.95;65.05;99724.47;5050600;28;20396;-76
2022/11/18 09:23:44;;;;;;;27.88;9.25;;;;;;;19.10;64.92;99719.72;5050437;28;20025;-76
2022/11/18 09:26:12;;;;;;;17.13;9.57;;;;;;;19.12;64.90;99717.63;5050487;28;20461;-76
2022/11/18 09:28:38;;;;;;;28.05;9.73;;;;;;;19.02;65.68;99719.88;5050472;28;20087;-77
2022/11/18 09:31:10;;;;;;;44.15;10.02;;;;;;;19.32;65.37;99721.31;5050684;28;20091;-75
2022/11/18 09:33:36;;;;;;;32.15;9.88;;;;;;;19.39;64.87;99708.56;5065317;28;20503;-75
2022/11/18 09:36:12;;;;;;;33.03;11.20;;;;;;;19.49;65.45;99703.56;5050946;28;20035;-76
2022/11/18 09:38:37;;;;;;;17.60;9.48;;;;;;;19.50;65.08;99699.81;5050664;28;20021;-76
2022/11/18 09:41:08;;;;;;;26.58;11.23;;;;;;;19.44;65.33;99695.16;5050451;28;20389;-75
2022/11/18 09:43:52;;;;;;;23.90;10.40;;;;;;;19.51;65.24;99692.44;5050595;28;20044;-76
2022/11/18 09:46:21;;;;;;;35.03;10.63;;;;;;;19.32;65.46;99691.31;5050250;28;20025;-77
2022/11/18 09:51:38;;;;;;;26.67;10.38;;;;;;;19.33;65.79;99690.25;5050803;28;20040;-75
2022/11/18 09:54:03;;;;;;;40.42;10.32;;;;;;;19.35;65.52;99674.53;5050593;28;20521;-76
2022/11/18 09:56:29;;;;;;;25.63;11.00;;;;;;;19.35;66.11;99669.09;5050840;28;20120;-77
2022/11/18 09:58:54;;;;;;;29.83;10.27;;;;;;;19.44;65.76;99673.34;5050121;28;20075;-78
2022/11/18 10:01:20;;;;;;;17.45;9.88;;;;;;;19.57;65.26;99669.78;5050005;28;20029;-76
2022/11/18 10:03:46;;;;;;;44.90;10.32;;;;;;;19.70;64.91;99663.53;5050009;28;20115;-75
2022/11/18 10:06:26;;;;;;;22.98;9.95;;;;;;;19.57;64.66;99652.59;5049649;28;20107;-76
2022/11/18 10:09:12;;;;;;;26.92;10.43;;;;;;;19.59;65.41;99658.69;5049515;28;20462;-76
2022/11/18 10:11:56;;;;;;;38.22;11.50;;;;;;;19.42;65.65;99659.06;5051941;28;20456;-77
2022/11/18 10:14:40;;;;;;;31.23;11.35;;;;;;;19.30;66.12;99652.47;5049804;28;20029;-76
2022/11/18 10:17:24;;;;;;;34.38;11.02;;;;;;;19.53;65.89;99653.03;5050148;28;20432;-77
2022/11/18 10:19:50;;;;;;;23.55;9.95;;;;;;;19.62;65.34;99658.28;5050226;28;20485;-76
2022/11/18 10:22:53;;;;;;;29.15;10.38;;;;;;;19.67;65.63;99644.84;5053580;28;20026;-76
2022/11/18 10:25:19;;;;;;;23.02;12.02;;;;;;;19.43;66.68;99649.84;5013735;28;20464;-76
2022/11/18 10:27:47;;;;;;;35.25;12.88;;;;;;;19.44;66.14;99623.41;5011700;28;20030;-76
2022/11/18 10:30:23;;;;;;;19.50;9.75;;;;;;;19.32;66.23;99641.38;5008488;28;20052;-76
2022/11/18 10:33:03;;;;;;;36.78;11.88;;;;;;;19.03;67.56;99639.81;5008201;28;20057;-76
2022/11/18 10:35:35;;;;;;;46.35;13.18;;;;;;;18.96;68.09;99642.50;5008181;28;20034;-76
2022/11/18 10:38:04;;;;;;;30.33;12.52;;;;;;;19.11;68.25;99623.25;5007710;28;20037;-76
2022/11/18 10:40:32;;;;;;;48.63;12.65;;;;;;;19.18;68.14;99626.84;5007478;28;20527;-76
2022/11/18 10:42:58;;;;;;;28.00;11.32;;;;;;;19.27;67.87;99617.44;5007566;28;20042;-77
2022/11/18 10:45:28;;;;;;;28.95;11.40;;;;;;;19.26;67.96;99623.13;5007649;28;20097;-75
2022/11/18 10:48:16;;;;;;;31.35;12.45;;;;;;;19.23;68.32;99623.53;5007399;28;20100;-76
2022/11/18 10:50:45;;;;;;;38.35;13.98;;;;;;;19.12;68.82;99624.94;5008660;28;20050;-77
2022/11/18 10:53:30;;;;;;;33.97;13.45;;;;;;;19.11;69.26;99623.25;5008242;28;20057;-76
2022/11/18 10:56:01;;;;;;;31.75;14.23;;;;;;;19.18;69.12;99624.13;5026107;28;20068;-75
2022/11/18 10:58:29;;;;;;;23.50;12.52;;;;;;;18.99;69.24;99624.88;5050703;28;20039;-76
2022/11/18 11:01:25;;;;;;;31.58;12.55;;;;;;;19.09;69.56;99630.81;5053217;28;20535;-76
2022/11/18 11:04:11;;;;;;;27.75;13.43;;;;;;;19.01;69.55;99639.19;5011437;28;20041;-76
2022/11/18 11:06:37;;;;;;;17.90;11.98;;;;;;;18.97;69.78;99630.56;5011020;28;20559;-76
2022/11/18 11:09:12;;;;;;;22.92;12.30;;;;;;;19.00;70.04;99626.56;5010958;28;20081;-78
2022/11/18 11:12:02;;;;;;;31.90;12.32;;;;;;;18.90;70.38;99620.66;5013003;28;20065;-75
2022/11/18 11:14:34;;;;;;;32.13;14.00;;;;;;;18.99;70.46;99624.88;5010617;28;20046;-76
2022/11/18 11:17:00;;;;;;;33.78;13.23;;;;;;;18.96;70.16;99598.03;5011108;28;20033;-75
2022/11/18 11:19:33;;;;;;;24.00;12.82;;;;;;;19.22;69.75;99619.97;5011114;28;20048;-77
2022/11/18 11:21:58;;;;;;;21.30;12.05;;;;;;;19.19;69.83;99624.97;4994160;28;20155;-76
2022/11/18 11:24:27;;;;;;;23.05;11.82;;;;;;;18.94;70.08;99581.91;5010780;28;20137;-75
2022/11/18 11:27:09;;;;;;;26.05;12.93;;;;;;;18.80;70.51;99546.66;5010709;28;20038;-77
2022/11/18 11:29:54;;;;;;;38.35;15.32;;;;;;;19.08;70.55;99607.31;5010957;28;20057;-76
2022/11/18 11:32:58;;;;;;;49.53;15.02;;;;;;;18.89;70.74;99561.78;5012485;28;20045;-77
2022/11/18 11:35:36;;;;;;;45.05;15.32;;;;;;;19.15;70.87;99589.09;5018270;28;20112;-76
2022/11/18 11:38:24;;;;;;;28.65;12.25;;;;;;;19.06;71.42;99586.75;5016362;28;20034;-76
2022/11/18 11:41:13;;;;;;;30.77;13.45;;;;;;;19.08;71.65;99577.34;4996294;28;20058;-76
2022/11/18 11:44:00;;;;;;;37.33;14.02;;;;;;;19.11;71.35;99579.66;4993779;28;20493;-76
2022/11/18 11:46:39;;;;;;;25.75;15.23;;;;;;;18.86;71.70;99524.03;5010435;28;20072;-76
2022/11/18 11:49:26;;;;;;;35.83;14.90;;;;;;;19.14;71.71;99584.72;5009920;28;20077;-76